Aeroporto :
LOGIN :

Iscrizione | Disclaimer

   EN    FR    IT 

 










Sommario :    VFR   VFR Marginale   IFR   IFR Intensivo   IFR Molto Intensivo
Visibilità : 
Base nubi : 
>= 8 km
>= 3000ft
5 / 8 km
1000 / 3000 ft
1500m / 5 km
500 / 1000 ft
800 / 1500m
200 / 500 ft
< 800m
< 200 ft
Simboli :   Temporali  Nebbia  Neve Forte  Precipitazioni Forti  Vento > 20 kt
SIGMETs :   Varie  Temporali  Ghiacco  Turbolenza  Onda orograficha  Ceneri Vulcaniche






- Altitudine del aeroporto : 39 ft
- Codice IATA : TRS


LIPQ - Friuli Venezia Giulia Apt. Trieste

ULTIMO METAR :
  • 051250Z AUTO VRB03KT 9999 BKN062/// 25/14 Q1012

METARs OBSOLETI :
  • 051220Z AUTO 18004KT 090V220 9999 OVC061/// 25/14 Q1013
  • 051150Z AUTO 12009KT 090V150 9999 BKN062/// 25/15 Q1013
  • 051120Z AUTO VRB04KT 9999 SCT063/// SCT099/// 26/13 Q1013
  • 051050Z AUTO 03005KT 320V080 9999 FEW100/// SCT110/// 24/16 Q1013
  • 051020Z AUTO 35005KT 310V010 9999 BKN083/// 22/16 Q1013

TAF TAF LIPQ
Valido dal 05 a 12 ore il 06 a 12 ore UTC


051100Z 0512/0612 07010KT 9999 SCT060



MetMap, La meteo Aeronautica in un colpo d'occhio ! - Copyright ORBIFLY Dicembre 2007 - Disclaimer

ORBIFLY MET'MAP TEAM :

Programmazione e sviluppo : Alexandra Zaïnal
Concezione : Baudouin d'Aumeries
Aiuto per la programmazione : Marc-Olivier Méhu
Supporto tecnico e logistico : Manuel Goepfert
Aiuto per la traduzione : Arnaldo La Scala

Contatto : metmap@orbifly.com




FONTI E CREDITI :

   NOAA